HNL weather

Honolulu International Airport
Honolulu, Hawaii, United States

Public forecast

Using degrees Fahrenheit for public forecast. Weather courtesy of forecast.io.

METAR (pilot weather report)

Retrieved 2017/03/29 08:53 UTC (19 minutes ago):

PHNL 290853Z 08011KT 10SM FEW028 24/17 A3012

TAF (pilot weather forecast)

Retrieved 2017/03/29 06:22 UTC (3 hours ago):

TAF PHNL 290520Z 2906/3012 05006KT P6SM FEW025 SCT045 FM292100 08010G15KT P6SM FEW025 SCT050 FM300500 06006KT P6SM FEW025 SCT045